Time;durP1;ratioP1;P1;durP2;ratioP2;P2;SDS_P1;SDS_P2;PMS_P1;PMS_P2;Temp;Humidity;BMP_temperature;BMP_pressure;BME280_temperature;BME280_humidity;BME280_pressure;Samples;Min_cycle;Max_cycle;Signal;HPM_P1;HPM_P2
2024/01/07 00:01:35;;;;;;;0.10;0.10;;;3.40;99.90;;;;;;5021976;28;20814;-83
2024/01/07 00:04:01;;;;;;;0.10;0.10;;;3.40;99.90;;;;;;5022243;28;20111;-84
2024/01/07 00:06:27;;;;;;;0.10;0.10;;;3.40;99.90;;;;;;5015541;28;20040;-83
2024/01/07 00:08:52;;;;;;;0.10;0.10;;;3.40;99.90;;;;;;5015275;28;20619;-82
2024/01/07 00:11:18;;;;;;;0.10;0.10;;;3.50;99.90;;;;;;5015311;28;20052;-84
2024/01/07 00:13:45;;;;;;;0.10;0.10;;;3.40;99.90;;;;;;5027388;28;20546;-84
2024/01/07 00:16:10;;;;;;;0.10;0.10;;;3.50;99.90;;;;;;5026467;28;20132;-84
2024/01/07 00:18:36;;;;;;;0.10;0.10;;;3.40;99.90;;;;;;5015617;28;20122;-85
2024/01/07 00:21:02;;;;;;;0.10;0.10;;;3.40;99.90;;;;;;5022559;28;20037;-83
2024/01/07 00:23:28;;;;;;;0.10;0.10;;;3.30;99.90;;;;;;5022936;28;20063;-82
2024/01/07 00:25:54;;;;;;;0.10;0.10;;;3.00;99.90;;;;;;5017416;28;20041;-85
2024/01/07 00:28:20;;;;;;;0.20;0.20;;;2.90;99.90;;;;;;5013341;28;20025;-83
2024/01/07 00:30:46;;;;;;;0.10;0.10;;;2.80;99.90;;;;;;5019349;28;20451;-85
2024/01/07 00:33:11;;;;;;;0.10;0.10;;;2.70;99.90;;;;;;5017391;28;20033;-85
2024/01/07 00:35:37;;;;;;;0.10;0.10;;;2.60;99.90;;;;;;5020430;28;20472;-83
2024/01/07 00:38:03;;;;;;;0.20;0.20;;;2.60;99.90;;;;;;5021540;28;20635;-83
2024/01/07 00:40:29;;;;;;;0.10;0.10;;;2.60;99.90;;;;;;5019811;28;20060;-86
2024/01/07 00:42:54;;;;;;;0.52;0.52;;;2.50;99.90;;;;;;5029076;28;20029;-85
2024/01/07 00:45:21;;;;;;;0.10;0.10;;;2.60;99.90;;;;;;5017227;28;20556;-86
2024/01/07 00:47:47;;;;;;;0.10;0.10;;;2.50;99.90;;;;;;5022496;28;20029;-82
2024/01/07 00:50:13;;;;;;;0.10;0.10;;;2.50;99.90;;;;;;5019352;28;20037;-84
2024/01/07 00:52:38;;;;;;;0.03;0.03;;;2.50;99.90;;;;;;5016201;28;20028;-84
2024/01/07 00:55:06;;;;;;;0.70;0.40;;;2.60;99.90;;;;;;5013323;28;20037;-83
2024/01/07 00:57:32;;;;;;;0.10;0.10;;;2.80;99.90;;;;;;5021155;28;20030;-83
2024/01/07 00:59:58;;;;;;;0.10;0.10;;;3.10;99.90;;;;;;5018478;28;20104;-83
2024/01/07 01:02:24;;;;;;;0.13;0.13;;;3.20;99.90;;;;;;5013319;28;20559;-82
2024/01/07 01:04:50;;;;;;;0.10;0.10;;;3.30;99.90;;;;;;5012505;28;20108;-84
2024/01/07 01:07:16;;;;;;;0.10;0.10;;;3.40;99.90;;;;;;5014372;28;20041;-83
2024/01/07 01:09:42;;;;;;;0.10;0.10;;;3.40;99.90;;;;;;5018412;28;20037;-83
2024/01/07 01:12:07;;;;;;;0.10;0.10;;;3.40;99.90;;;;;;5018637;28;20054;-82
2024/01/07 01:14:33;;;;;;;0.10;0.10;;;3.50;99.90;;;;;;5020598;28;20026;-82
2024/01/07 01:16:59;;;;;;;0.10;0.10;;;3.50;99.90;;;;;;5023283;28;20732;-84
2024/01/07 01:19:25;;;;;;;0.10;0.10;;;3.60;99.90;;;;;;5024334;28;20480;-84
2024/01/07 01:21:50;;;;;;;0.10;0.10;;;3.60;99.90;;;;;;5021328;28;20045;-83
2024/01/07 01:24:16;;;;;;;0.10;0.10;;;3.60;99.90;;;;;;5017107;28;20018;-83
2024/01/07 01:26:42;;;;;;;0.63;0.63;;;3.50;99.90;;;;;;5016946;28;20560;-82
2024/01/07 01:29:08;;;;;;;0.10;0.10;;;3.50;99.90;;;;;;5022687;28;20032;-83
2024/01/07 01:31:34;;;;;;;0.10;0.10;;;3.40;99.90;;;;;;5022270;28;20050;-83
2024/01/07 01:34:00;;;;;;;0.10;0.10;;;3.40;99.90;;;;;;5028470;28;20456;-82
2024/01/07 01:36:26;;;;;;;0.10;0.10;;;3.10;99.90;;;;;;5016580;28;20033;-83
2024/01/07 01:38:52;;;;;;;0.10;0.10;;;2.90;99.90;;;;;;5024108;28;20393;-84
2024/01/07 01:41:17;;;;;;;0.10;0.10;;;2.70;99.90;;;;;;5006496;28;20046;-83
2024/01/07 01:43:43;;;;;;;0.10;0.10;;;2.60;99.90;;;;;;5014796;28;20989;-83
2024/01/07 01:46:09;;;;;;;0.20;0.20;;;2.40;99.90;;;;;;5016433;28;20112;-83
2024/01/07 01:48:36;;;;;;;0.10;0.10;;;2.50;99.90;;;;;;5018928;28;20029;-85
2024/01/07 01:51:03;;;;;;;0.10;0.10;;;2.60;99.90;;;;;;5016672;28;20033;-81
2024/01/07 01:53:29;;;;;;;0.10;0.10;;;2.50;99.90;;;;;;5020506;28;20773;-83
2024/01/07 01:55:57;;;;;;;0.10;0.10;;;2.40;99.90;;;;;;5023185;28;20090;-83
2024/01/07 01:58:23;;;;;;;0.10;0.10;;;2.30;99.90;;;;;;5024424;28;20033;-82
2024/01/07 02:00:50;;;;;;;0.10;0.10;;;2.30;99.90;;;;;;5028891;28;20060;-82
2024/01/07 02:03:17;;;;;;;0.10;0.10;;;2.30;99.90;;;;;;5020397;28;20670;-82
2024/01/07 02:05:43;;;;;;;0.10;0.10;;;2.20;99.90;;;;;;5016728;28;20033;-83
2024/01/07 02:08:10;;;;;;;0.10;0.10;;;2.30;99.90;;;;;;5021325;28;20029;-82
2024/01/07 02:10:36;;;;;;;0.10;0.10;;;2.30;99.90;;;;;;5021757;28;20025;-82
2024/01/07 02:13:03;;;;;;;0.10;0.10;;;2.40;99.90;;;;;;5014840;28;20552;-82
2024/01/07 02:15:29;;;;;;;0.10;0.10;;;2.40;99.90;;;;;;5018783;28;20076;-83
2024/01/07 02:17:55;;;;;;;0.10;0.10;;;2.40;99.90;;;;;;5021975;28;20037;-83
2024/01/07 02:20:21;;;;;;;0.10;0.10;;;2.30;99.90;;;;;;5017590;28;20033;-83
2024/01/07 02:22:47;;;;;;;0.10;0.10;;;2.40;99.90;;;;;;5019416;28;20038;-83
2024/01/07 02:25:13;;;;;;;0.10;0.10;;;2.40;99.90;;;;;;5019519;28;20088;-84
2024/01/07 02:27:38;;;;;;;0.10;0.10;;;2.30;99.90;;;;;;5020368;28;20048;-83
2024/01/07 02:30:05;;;;;;;0.10;0.10;;;2.20;99.90;;;;;;5018676;28;20587;-81
2024/01/07 02:32:34;;;;;;;0.10;0.10;;;2.30;99.90;;;;;;5018194;28;20034;-82
2024/01/07 02:35:00;;;;;;;0.10;0.10;;;2.40;99.90;;;;;;5016596;28;20033;-82
2024/01/07 02:37:26;;;;;;;0.00;0.00;;;2.40;99.90;;;;;;5015405;28;20030;-83
2024/01/07 02:39:51;;;;;;;0.10;0.10;;;2.60;99.90;;;;;;5020785;28;20036;-83
2024/01/07 02:42:17;;;;;;;0.10;0.10;;;2.90;99.90;;;;;;5021770;28;20409;-82
2024/01/07 02:44:43;;;;;;;0.10;0.10;;;3.00;99.90;;;;;;5011656;28;20102;-82
2024/01/07 02:47:08;;;;;;;0.10;0.10;;;3.10;99.90;;;;;;5017566;28;20029;-83
2024/01/07 02:49:34;;;;;;;0.20;0.20;;;3.00;99.90;;;;;;5016048;28;20057;-85
2024/01/07 02:52:00;;;;;;;0.10;0.10;;;3.10;99.90;;;;;;5019811;28;20053;-83
2024/01/07 02:54:25;;;;;;;0.10;0.10;;;3.10;99.90;;;;;;5023887;28;20091;-81
2024/01/07 02:56:51;;;;;;;0.10;0.10;;;3.10;99.90;;;;;;5021196;28;20056;-84
2024/01/07 02:59:17;;;;;;;0.10;0.10;;;3.10;99.90;;;;;;5016120;28;20033;-83
2024/01/07 03:01:43;;;;;;;0.10;0.10;;;3.20;99.90;;;;;;5019340;28;20130;-85
2024/01/07 03:04:10;;;;;;;0.10;0.10;;;3.30;99.90;;;;;;5023645;28;20094;-84
2024/01/07 03:06:36;;;;;;;0.38;0.38;;;3.30;99.90;;;;;;5017763;28;20089;-82
2024/01/07 03:09:02;;;;;;;0.10;0.10;;;3.40;99.90;;;;;;5022187;28;20112;-83
2024/01/07 03:11:29;;;;;;;0.10;0.10;;;3.40;99.90;;;;;;5015924;28;20033;-83
2024/01/07 03:13:58;;;;;;;0.10;0.10;;;3.50;99.90;;;;;;5021084;28;20041;-82
2024/01/07 03:16:25;;;;;;;0.10;0.10;;;3.40;99.90;;;;;;5014456;28;20464;-84
2024/01/07 03:18:51;;;;;;;0.10;0.10;;;3.40;99.90;;;;;;5017633;28;20041;-85
2024/01/07 03:21:22;;;;;;;0.10;0.10;;;3.40;99.90;;;;;;5023194;28;20033;-83
2024/01/07 03:23:49;;;;;;;0.10;0.10;;;3.40;99.90;;;;;;5019033;28;20048;-82
2024/01/07 03:26:16;;;;;;;0.10;0.10;;;3.40;99.90;;;;;;5018765;28;20102;-85
2024/01/07 03:28:42;;;;;;;0.20;0.20;;;3.50;99.90;;;;;;5017969;28;20040;-82
2024/01/07 03:31:12;;;;;;;0.10;0.10;;;3.50;99.90;;;;;;5022794;28;20033;-82
2024/01/07 03:33:39;;;;;;;0.10;0.10;;;3.50;99.90;;;;;;5016651;28;20036;-84
2024/01/07 03:36:12;;;;;;;0.20;0.20;;;3.50;99.90;;;;;;5024097;28;20104;-84
2024/01/07 03:38:39;;;;;;;0.10;0.10;;;3.30;99.90;;;;;;5024221;28;20041;-82
2024/01/07 03:41:05;;;;;;;0.10;0.10;;;3.40;99.90;;;;;;5012726;28;20050;-84
2024/01/07 03:43:31;;;;;;;0.10;0.10;;;3.50;99.90;;;;;;5017649;28;20080;-82
2024/01/07 03:45:57;;;;;;;0.10;0.10;;;3.60;99.90;;;;;;5021076;28;20033;-82
2024/01/07 03:48:22;;;;;;;0.10;0.10;;;3.40;99.90;;;;;;5019876;28;20140;-84
2024/01/07 03:50:48;;;;;;;0.10;0.10;;;3.40;99.90;;;;;;5023278;28;20116;-84
2024/01/07 03:53:14;;;;;;;0.10;0.10;;;3.40;99.90;;;;;;5021686;28;20035;-86
2024/01/07 03:55:40;;;;;;;0.08;0.08;;;3.40;99.90;;;;;;5013847;28;20365;-83
2024/01/07 03:58:06;;;;;;;0.10;0.10;;;3.30;99.90;;;;;;5020721;28;20037;-84
2024/01/07 04:00:32;;;;;;;0.25;0.25;;;3.50;99.90;;;;;;5022640;28;20040;-83
2024/01/07 04:02:58;;;;;;;0.10;0.10;;;3.60;99.90;;;;;;5019518;28;20124;-84
2024/01/07 04:05:24;;;;;;;0.10;0.10;;;3.40;99.90;;;;;;5020404;28;20041;-83
2024/01/07 04:07:49;;;;;;;0.10;0.10;;;3.50;99.90;;;;;;5020963;28;20042;-83
2024/01/07 04:10:17;;;;;;;0.20;0.20;;;3.50;99.90;;;;;;5017556;28;20386;-83
2024/01/07 04:12:42;;;;;;;0.10;0.10;;;3.50;99.90;;;;;;5022697;28;20032;-81
2024/01/07 04:15:08;;;;;;;0.10;0.10;;;3.50;99.90;;;;;;5018956;28;20021;-86
2024/01/07 04:17:34;;;;;;;0.10;0.10;;;3.50;99.90;;;;;;5021946;28;20183;-84
2024/01/07 04:20:00;;;;;;;0.10;0.10;;;3.60;99.90;;;;;;5014121;28;20108;-83
2024/01/07 04:22:26;;;;;;;0.10;0.10;;;3.60;99.90;;;;;;5024122;28;20556;-84
2024/01/07 04:24:51;;;;;;;0.10;0.10;;;3.70;99.90;;;;;;5009219;28;20026;-84
2024/01/07 04:27:17;;;;;;;0.10;0.10;;;3.70;99.90;;;;;;5019481;28;20032;-82
2024/01/07 04:29:42;;;;;;;0.10;0.10;;;3.60;99.90;;;;;;5020503;28;20156;-82
2024/01/07 04:32:08;;;;;;;0.10;0.10;;;3.50;99.90;;;;;;5020962;28;20033;-84
2024/01/07 04:34:34;;;;;;;0.10;0.10;;;3.60;99.90;;;;;;5020790;28;20045;-84
2024/01/07 04:36:59;;;;;;;0.10;0.10;;;3.60;99.90;;;;;;5013401;28;20109;-84
2024/01/07 04:39:25;;;;;;;0.10;0.10;;;3.60;99.90;;;;;;5021688;28;20405;-82
2024/01/07 04:41:51;;;;;;;0.10;0.10;;;3.60;99.90;;;;;;5019264;28;20049;-83
2024/01/07 04:44:17;;;;;;;0.10;0.10;;;3.70;99.90;;;;;;5022743;28;20032;-83
2024/01/07 04:46:43;;;;;;;0.10;0.10;;;3.70;99.90;;;;;;5010394;28;20132;-83
2024/01/07 04:49:08;;;;;;;0.10;0.10;;;3.70;99.90;;;;;;5019074;28;20396;-84
2024/01/07 04:51:36;;;;;;;0.10;0.10;;;3.70;99.90;;;;;;5019123;28;20033;-83
2024/01/07 04:54:02;;;;;;;0.10;0.10;;;3.70;99.90;;;;;;5021945;28;20092;-83
2024/01/07 04:56:27;;;;;;;0.10;0.10;;;3.70;99.90;;;;;;5015365;28;20037;-84
2024/01/07 04:58:53;;;;;;;0.10;0.10;;;3.70;99.90;;;;;;5021406;28;20037;-83
2024/01/07 05:01:19;;;;;;;0.10;0.10;;;3.70;99.90;;;;;;5014886;28;20512;-83
2024/01/07 05:03:44;;;;;;;0.10;0.10;;;3.70;99.90;;;;;;5019623;28;20573;-82
2024/01/07 05:06:11;;;;;;;0.10;0.10;;;3.80;99.90;;;;;;5019269;28;20790;-82
2024/01/07 05:08:37;;;;;;;0.08;0.08;;;3.70;99.90;;;;;;5020868;28;20037;-83
2024/01/07 05:11:06;;;;;;;0.10;0.10;;;3.60;99.90;;;;;;5016619;28;20583;-83
2024/01/07 05:13:32;;;;;;;0.10;0.10;;;3.80;99.90;;;;;;5018598;28;20564;-83
2024/01/07 05:15:58;;;;;;;0.10;0.10;;;3.60;99.90;;;;;;5020999;28;20038;-83
2024/01/07 05:18:24;;;;;;;0.10;0.10;;;3.60;99.90;;;;;;5017232;28;20044;-86
2024/01/07 05:20:50;;;;;;;0.10;0.10;;;3.80;99.90;;;;;;5017700;28;20026;-83
2024/01/07 05:23:16;;;;;;;0.10;0.10;;;3.60;99.90;;;;;;5016718;28;20532;-82
2024/01/07 05:25:45;;;;;;;0.10;0.10;;;3.70;99.90;;;;;;5019733;28;20815;-82
2024/01/07 05:28:12;;;;;;;0.10;0.10;;;3.70;99.90;;;;;;5023319;28;20029;-83
2024/01/07 05:30:38;;;;;;;0.10;0.10;;;3.70;99.90;;;;;;5030476;28;20032;-82
2024/01/07 05:33:04;;;;;;;0.10;0.10;;;3.60;99.90;;;;;;5021081;28;20068;-85
2024/01/07 05:35:30;;;;;;;0.10;0.10;;;3.60;99.90;;;;;;5016316;28;20101;-81
2024/01/07 05:37:56;;;;;;;0.10;0.10;;;3.60;99.90;;;;;;5013398;28;20140;-82
2024/01/07 05:40:22;;;;;;;0.10;0.10;;;3.60;99.90;;;;;;5042660;28;20164;-82
2024/01/07 05:42:48;;;;;;;0.30;0.30;;;3.70;99.90;;;;;;5020820;28;20542;-83
2024/01/07 05:45:14;;;;;;;0.10;0.10;;;3.70;99.90;;;;;;5017540;28;20029;-82
2024/01/07 05:47:40;;;;;;;0.65;0.55;;;3.70;99.90;;;;;;5018945;28;20099;-84
2024/01/07 05:50:07;;;;;;;0.10;0.10;;;3.80;99.90;;;;;;5018259;28;20033;-83
2024/01/07 05:52:33;;;;;;;0.13;0.13;;;3.80;99.90;;;;;;5003352;28;20112;-82
2024/01/07 05:54:58;;;;;;;0.10;0.10;;;3.80;99.90;;;;;;5007699;28;20029;-86
2024/01/07 05:57:24;;;;;;;0.10;0.10;;;3.80;99.90;;;;;;5005444;28;20025;-84
2024/01/07 05:59:50;;;;;;;0.10;0.10;;;3.90;99.90;;;;;;5020808;28;20101;-82
2024/01/07 06:02:17;;;;;;;0.10;0.10;;;3.80;99.90;;;;;;5025264;28;20029;-83
2024/01/07 06:04:43;;;;;;;0.10;0.10;;;3.80;99.90;;;;;;5025066;28;20476;-82
2024/01/07 06:07:08;;;;;;;0.10;0.10;;;3.70;99.90;;;;;;5018044;28;20026;-83
2024/01/07 06:09:34;;;;;;;0.10;0.10;;;3.80;99.90;;;;;;5023147;28;20782;-82
2024/01/07 06:12:01;;;;;;;0.10;0.10;;;3.80;99.90;;;;;;5019078;28;20022;-83
2024/01/07 06:14:26;;;;;;;0.10;0.10;;;3.70;99.90;;;;;;5021849;28;20128;-82
2024/01/07 06:16:52;;;;;;;0.10;0.10;;;3.80;99.90;;;;;;5018327;28;20030;-82
2024/01/07 06:19:18;;;;;;;0.10;0.10;;;3.80;99.90;;;;;;5019458;28;20064;-82
2024/01/07 06:21:44;;;;;;;0.10;0.10;;;3.80;99.90;;;;;;5020458;28;20283;-82
2024/01/07 06:24:11;;;;;;;0.10;0.10;;;3.80;99.90;;;;;;5015740;28;20033;-81
2024/01/07 06:26:37;;;;;;;0.10;0.10;;;3.90;99.90;;;;;;5022479;28;20033;-82
2024/01/07 06:29:03;;;;;;;0.10;0.10;;;3.70;99.90;;;;;;5022496;28;20037;-81
2024/01/07 06:31:29;;;;;;;0.13;0.13;;;3.80;99.90;;;;;;5017255;28;20037;-82
2024/01/07 06:33:57;;;;;;;0.10;0.10;;;3.80;99.90;;;;;;5015999;28;20033;-86
2024/01/07 06:36:23;;;;;;;0.10;0.10;;;3.80;99.90;;;;;;5019419;28;20056;-85
2024/01/07 06:38:49;;;;;;;0.15;0.15;;;3.80;99.90;;;;;;5021090;28;20037;-85
2024/01/07 06:41:15;;;;;;;0.10;0.10;;;3.80;99.90;;;;;;5028565;28;20049;-86
2024/01/07 06:43:41;;;;;;;0.10;0.10;;;3.70;99.90;;;;;;5017150;28;20827;-83
2024/01/07 06:46:06;;;;;;;0.10;0.10;;;3.70;99.90;;;;;;5024918;28;20030;-82
2024/01/07 06:48:32;;;;;;;0.10;0.10;;;3.60;99.90;;;;;;5025230;28;20108;-85
2024/01/07 06:50:58;;;;;;;0.10;0.10;;;3.60;99.90;;;;;;5022969;28;20025;-82
2024/01/07 06:53:24;;;;;;;0.10;0.10;;;3.60;99.90;;;;;;5017925;28;20047;-84
2024/01/07 06:55:49;;;;;;;0.10;0.10;;;3.60;99.90;;;;;;5020377;28;20049;-83
2024/01/07 06:58:15;;;;;;;0.63;0.63;;;3.60;99.90;;;;;;5024642;28;20752;-82
2024/01/07 07:00:41;;;;;;;0.10;0.10;;;3.70;99.90;;;;;;5027131;28;20261;-84
2024/01/07 07:03:08;;;;;;;0.10;0.10;;;3.70;99.90;;;;;;5024171;28;20029;-83
2024/01/07 07:05:33;;;;;;;0.10;0.10;;;3.50;99.90;;;;;;5021649;28;20800;-82
2024/01/07 07:07:59;;;;;;;0.10;0.10;;;3.30;99.90;;;;;;5022834;28;20037;-84
2024/01/07 07:10:25;;;;;;;0.10;0.10;;;3.10;99.90;;;;;;5032771;28;20068;-85
2024/01/07 07:12:51;;;;;;;0.10;0.10;;;3.30;99.90;;;;;;5023423;28;20432;-87
2024/01/07 07:15:17;;;;;;;0.10;0.10;;;3.40;99.90;;;;;;5033902;28;20451;-82
2024/01/07 07:17:43;;;;;;;0.10;0.10;;;3.50;99.90;;;;;;5020436;28;20093;-85
2024/01/07 07:20:09;;;;;;;0.10;0.10;;;3.60;99.80;;;;;;5022899;28;20025;-84
2024/01/07 07:22:35;;;;;;;0.10;0.10;;;3.50;99.50;;;;;;5022661;28;20109;-82
2024/01/07 07:25:02;;;;;;;0.10;0.10;;;3.40;98.80;;;;;;5016937;28;20095;-85
2024/01/07 07:27:27;;;;;;;0.10;0.10;;;3.40;98.70;;;;;;5022745;28;20060;-82
2024/01/07 07:29:53;;;;;;;0.10;0.10;;;3.40;98.80;;;;;;5014908;28;20508;-83
2024/01/07 07:32:20;;;;;;;0.10;0.10;;;3.30;99.40;;;;;;5019935;28;20036;-83
2024/01/07 07:34:46;;;;;;;0.10;0.10;;;3.30;99.00;;;;;;5023264;28;20037;-81
2024/01/07 07:37:13;;;;;;;0.10;0.10;;;3.30;98.80;;;;;;5015347;28;20037;-81
2024/01/07 07:39:38;;;;;;;0.10;0.10;;;3.40;98.80;;;;;;5025055;28;20024;-83
2024/01/07 07:42:04;;;;;;;0.10;0.10;;;3.60;98.50;;;;;;5020668;28;20284;-86
2024/01/07 07:44:30;;;;;;;0.10;0.10;;;3.60;98.40;;;;;;5017194;28;20044;-85
2024/01/07 07:46:55;;;;;;;0.10;0.10;;;3.40;97.30;;;;;;5019175;28;20029;-83
2024/01/07 07:49:21;;;;;;;0.10;0.10;;;3.40;97.90;;;;;;5020067;28;20064;-85
2024/01/07 07:51:47;;;;;;;0.10;0.10;;;3.20;97.50;;;;;;5020638;28;20044;-83
2024/01/07 07:54:13;;;;;;;0.10;0.10;;;3.20;97.40;;;;;;5020554;28;20033;-88
2024/01/07 07:56:38;;;;;;;0.10;0.10;;;3.20;97.70;;;;;;5022996;28;20026;-87
2024/01/07 07:59:04;;;;;;;0.10;0.10;;;3.30;97.00;;;;;;5011681;28;20037;-89
2024/01/07 08:01:30;;;;;;;0.10;0.10;;;3.50;96.30;;;;;;5018076;28;20087;-87
2024/01/07 08:03:56;;;;;;;0.10;0.10;;;3.50;96.70;;;;;;5020862;28;20037;-89
2024/01/07 08:06:21;;;;;;;1.20;1.17;;;3.50;96.00;;;;;;5017822;28;20496;-87
2024/01/07 08:08:47;;;;;;;0.10;0.10;;;3.60;96.20;;;;;;5017283;28;20112;-85
2024/01/07 08:11:13;;;;;;;0.22;0.22;;;3.60;96.10;;;;;;5022128;28;20125;-87
2024/01/07 08:13:38;;;;;;;0.10;0.10;;;3.60;95.40;;;;;;5028554;28;20033;-88
2024/01/07 08:16:07;;;;;;;0.10;0.10;;;3.60;95.80;;;;;;5018534;28;20028;-88
2024/01/07 08:18:33;;;;;;;0.10;0.10;;;3.70;96.00;;;;;;5023000;28;20683;-88
2024/01/07 08:20:59;;;;;;;0.10;0.10;;;3.70;95.50;;;;;;5023938;28;20030;-87
2024/01/07 08:23:25;;;;;;;0.10;0.10;;;3.80;95.40;;;;;;5024916;28;20034;-88
2024/01/07 08:25:53;;;;;;;0.10;0.10;;;3.70;95.20;;;;;;5024364;28;20574;-88
2024/01/07 08:28:20;;;;;;;1.00;1.00;;;3.70;95.40;;;;;;5014750;28;20122;-87
2024/01/07 08:30:46;;;;;;;0.10;0.10;;;3.70;95.20;;;;;;5019887;28;20056;-86
2024/01/07 08:33:12;;;;;;;0.10;0.10;;;3.80;94.90;;;;;;5024897;28;20686;-87
2024/01/07 08:35:38;;;;;;;0.20;0.20;;;3.70;94.70;;;;;;5022846;28;20531;-86
2024/01/07 08:38:04;;;;;;;0.10;0.10;;;3.80;94.70;;;;;;5015816;28;20068;-87
2024/01/07 08:40:30;;;;;;;0.10;0.10;;;3.70;94.40;;;;;;5018859;28;20037;-86
2024/01/07 08:42:56;;;;;;;0.10;0.10;;;3.80;94.50;;;;;;5019671;28;20029;-88
2024/01/07 08:45:22;;;;;;;0.10;0.10;;;3.90;94.50;;;;;;5014011;28;20038;-86
2024/01/07 08:47:48;;;;;;;0.10;0.10;;;3.80;94.30;;;;;;5020437;28;20037;-87
2024/01/07 08:50:14;;;;;;;0.10;0.10;;;3.90;94.10;;;;;;5021346;28;20033;-87
2024/01/07 08:52:39;;;;;;;0.10;0.10;;;3.80;94.30;;;;;;5013290;28;20053;-87
2024/01/07 08:55:07;;;;;;;0.13;0.13;;;4.00;94.80;;;;;;5021555;28;20033;-86
2024/01/07 08:57:33;;;;;;;0.13;0.13;;;3.80;94.10;;;;;;5021739;28;20398;-84
2024/01/07 08:59:58;;;;;;;0.28;0.28;;;3.90;94.50;;;;;;5017299;28;20034;-88
2024/01/07 09:02:25;;;;;;;0.10;0.10;;;4.10;93.70;;;;;;5021598;28;20022;-87
2024/01/07 09:04:51;;;;;;;0.20;0.20;;;4.50;93.90;;;;;;5016487;28;20030;-82
2024/01/07 09:07:16;;;;;;;0.80;0.80;;;5.10;93.20;;;;;;5020386;28;20409;-82
2024/01/07 09:09:42;;;;;;;0.10;0.10;;;5.00;93.00;;;;;;5025728;28;20561;-83
2024/01/07 09:12:08;;;;;;;0.10;0.10;;;4.70;93.10;;;;;;5022197;28;20026;-83
2024/01/07 09:14:34;;;;;;;0.10;0.10;;;4.60;93.40;;;;;;5020143;28;20041;-81
2024/01/07 09:16:59;;;;;;;0.30;0.30;;;4.50;93.20;;;;;;5016368;28;20380;-83
2024/01/07 09:19:25;;;;;;;0.55;0.55;;;4.50;93.60;;;;;;5029557;28;20048;-82
2024/01/07 09:21:51;;;;;;;0.10;0.10;;;4.50;93.40;;;;;;5021105;28;20032;-84
2024/01/07 09:24:18;;;;;;;0.10;0.10;;;4.30;93.00;;;;;;5016583;28;20030;-80
2024/01/07 09:26:44;;;;;;;0.10;0.10;;;4.40;93.70;;;;;;5021098;28;20768;-86
2024/01/07 09:29:10;;;;;;;0.10;0.10;;;4.30;93.20;;;;;;5019966;28;20523;-81
2024/01/07 09:31:36;;;;;;;0.10;0.10;;;4.50;93.40;;;;;;5017891;28;20125;-85
2024/01/07 09:34:02;;;;;;;4.28;3.00;;;4.60;93.10;;;;;;5022369;28;20355;-84
2024/01/07 09:36:27;;;;;;;1.08;1.08;;;4.90;93.00;;;;;;5019386;28;20041;-82
2024/01/07 09:38:53;;;;;;;0.10;0.10;;;5.30;91.80;;;;;;5034110;28;20025;-80
2024/01/07 09:41:19;;;;;;;1.15;0.52;;;5.30;91.80;;;;;;5024934;28;20042;-83
2024/01/07 09:43:45;;;;;;;0.10;0.10;;;6.00;91.10;;;;;;5026128;28;20108;-78
2024/01/07 09:46:11;;;;;;;0.10;0.10;;;6.30;88.20;;;;;;5013380;28;20029;-86
2024/01/07 09:48:37;;;;;;;0.77;0.75;;;5.90;89.40;;;;;;5022693;28;20033;-83
2024/01/07 09:51:06;;;;;;;0.10;0.10;;;6.10;90.30;;;;;;5025150;28;20048;-82
2024/01/07 09:53:37;;;;;;;0.10;0.10;;;6.00;90.10;;;;;;5031128;28;20021;-83
2024/01/07 09:56:18;;;;;;;0.10;0.10;;;5.60;89.90;;;;;;5023742;28;20022;-84
2024/01/07 09:58:45;;;;;;;1.08;0.85;;;5.60;89.60;;;;;;5026087;28;21060;-83
2024/01/07 10:01:10;;;;;;;;;;;5.40;89.10;;;;;;5020554;28;20026;-82
2024/01/07 10:03:36;;;;;;;0.20;0.20;;;5.50;89.30;;;;;;5023700;28;19913;-84
2024/01/07 10:06:03;;;;;;;0.10;0.10;;;5.30;90.20;;;;;;5031035;28;20021;-81
2024/01/07 10:08:29;;;;;;;0.10;0.10;;;5.40;89.00;;;;;;5018855;28;20100;-84
2024/01/07 10:10:55;;;;;;;0.10;0.10;;;5.60;89.70;;;;;;5023201;28;20033;-85
2024/01/07 10:13:22;;;;;;;0.10;0.10;;;5.40;88.80;;;;;;5032621;28;20576;-82
2024/01/07 10:15:48;;;;;;;0.10;0.10;;;5.40;88.30;;;;;;5027716;28;20096;-81
2024/01/07 10:18:14;;;;;;;0.10;0.10;;;5.50;88.20;;;;;;5027851;28;20038;-83
2024/01/07 10:20:40;;;;;;;0.10;0.10;;;5.50;86.80;;;;;;5029235;28;20088;-83
2024/01/07 10:23:07;;;;;;;0.10;0.10;;;5.40;87.50;;;;;;5024113;28;20544;-81
2024/01/07 10:25:34;;;;;;;0.50;0.50;;;5.50;86.70;;;;;;5021475;28;20572;-80
2024/01/07 10:28:03;;;;;;;0.10;0.10;;;5.70;86.50;;;;;;5022103;28;20417;-84
2024/01/07 10:30:29;;;;;;;0.20;0.20;;;5.30;84.80;;;;;;5024901;28;20052;-80
2024/01/07 10:32:59;;;;;;;0.10;0.10;;;5.40;86.90;;;;;;5021403;28;20123;-83
2024/01/07 10:35:37;;;;;;;0.10;0.10;;;5.40;84.10;;;;;;5013874;28;20037;-81
2024/01/07 10:38:03;;;;;;;0.10;0.10;;;5.30;84.50;;;;;;5020801;28;20467;-78
2024/01/07 10:40:32;;;;;;;0.10;0.10;;;5.20;84.70;;;;;;5017452;28;20462;-82
2024/01/07 10:42:58;;;;;;;0.10;0.10;;;5.30;84.60;;;;;;5017898;28;20378;-81
2024/01/07 10:45:24;;;;;;;0.10;0.10;;;5.20;82.30;;;;;;5015097;28;20610;-82
2024/01/07 10:47:53;;;;;;;0.10;0.10;;;5.50;84.20;;;;;;5021112;28;20041;-82
2024/01/07 10:50:19;;;;;;;0.10;0.10;;;5.60;82.30;;;;;;5010712;28;20050;-81
2024/01/07 10:53:00;;;;;;;0.10;0.10;;;5.60;82.30;;;;;;5019249;28;20026;-82
2024/01/07 10:55:33;;;;;;;0.10;0.10;;;5.70;82.00;;;;;;5017210;28;20146;-81
2024/01/07 10:58:01;;;;;;;0.10;0.10;;;5.90;80.90;;;;;;5018649;28;20747;-81
2024/01/07 11:00:27;;;;;;;0.10;0.10;;;5.60;80.80;;;;;;5015191;28;20032;-85
2024/01/07 11:02:59;;;;;;;0.10;0.10;;;5.60;81.00;;;;;;5019140;28;20029;-86
2024/01/07 11:05:32;;;;;;;0.10;0.10;;;5.80;81.50;;;;;;5023755;28;20072;-85
2024/01/07 11:08:06;;;;;;;0.10;0.10;;;5.80;81.10;;;;;;5018383;28;20086;-87
2024/01/07 11:10:41;;;;;;;0.35;0.30;;;5.60;81.70;;;;;;5022360;28;20443;-87
2024/01/07 11:13:07;;;;;;;0.10;0.10;;;5.60;81.20;;;;;;5019003;28;20416;-85
2024/01/07 11:15:54;;;;;;;0.10;0.10;;;5.60;81.50;;;;;;5017872;28;20032;-85
2024/01/07 11:18:21;;;;;;;0.10;0.10;;;5.40;81.80;;;;;;5013742;28;20540;-87
2024/01/07 11:20:47;;;;;;;0.10;0.10;;;5.30;81.60;;;;;;5016522;28;20029;-87
2024/01/07 11:23:33;;;;;;;0.10;0.10;;;5.30;82.30;;;;;;5014538;28;20085;-87
2024/01/07 11:26:02;;;;;;;0.10;0.10;;;5.50;81.80;;;;;;5041936;28;20999;-88
2024/01/07 11:28:51;;;;;;;0.10;0.10;;;5.50;81.10;;;;;;5010861;28;20033;-85
2024/01/07 11:31:19;;;;;;;0.10;0.10;;;5.30;81.90;;;;;;5012705;28;20017;-86
2024/01/07 11:33:50;;;;;;;0.10;0.10;;;5.20;82.60;;;;;;5018360;28;20030;-85
2024/01/07 11:36:17;;;;;;;0.10;0.10;;;5.10;81.10;;;;;;5015435;28;20021;-85
2024/01/07 11:38:47;;;;;;;;;;;5.10;82.50;;;;;;5016207;28;20635;-87
2024/01/07 11:41:13;;;;;;;0.10;0.10;;;5.00;80.60;;;;;;5006836;28;19925;-86
2024/01/07 11:43:59;;;;;;;0.10;0.10;;;4.90;80.60;;;;;;5013367;28;20037;-86
2024/01/07 11:46:26;;;;;;;0.10;0.10;;;5.00;80.80;;;;;;5013841;28;20136;-88
2024/01/07 11:48:59;;;;;;;0.10;0.10;;;5.40;80.90;;;;;;5018053;28;20033;-85
2024/01/07 11:51:32;;;;;;;0.10;0.10;;;5.50;78.00;;;;;;5014537;28;20052;-85
2024/01/07 11:53:59;;;;;;;0.10;0.10;;;5.40;79.50;;;;;;5014188;28;20025;-86
2024/01/07 11:56:26;;;;;;;0.10;0.10;;;5.60;79.40;;;;;;5022038;28;20033;-86
2024/01/07 11:58:51;;;;;;;0.10;0.10;;;5.50;78.60;;;;;;5017641;28;20037;-85
2024/01/07 12:01:18;;;;;;;0.10;0.10;;;5.50;79.50;;;;;;5016509;28;20394;-85
2024/01/07 12:03:45;;;;;;;0.10;0.10;;;5.40;79.20;;;;;;5013873;28;20253;-87
2024/01/07 12:06:13;;;;;;;0.10;0.10;;;5.20;77.80;;;;;;5008688;28;20036;-86
2024/01/07 12:08:42;;;;;;;0.20;0.20;;;5.30;77.70;;;;;;5019673;28;20031;-87
2024/01/07 12:11:09;;;;;;;0.10;0.10;;;5.40;76.60;;;;;;5011269;28;20514;-86
2024/01/07 12:13:35;;;;;;;0.10;0.10;;;5.20;77.50;;;;;;5019614;28;20055;-85
2024/01/07 12:16:00;;;;;;;0.10;0.10;;;5.10;74.90;;;;;;5016779;28;20030;-87
2024/01/07 12:18:27;;;;;;;0.10;0.10;;;5.00;76.30;;;;;;5020202;28;20116;-85
2024/01/07 12:21:00;;;;;;;0.10;0.10;;;5.00;75.50;;;;;;5007138;28;20026;-86
2024/01/07 12:23:28;;;;;;;0.10;0.10;;;5.00;76.60;;;;;;5020525;28;20029;-78
2024/01/07 12:25:55;;;;;;;0.10;0.10;;;5.10;77.10;;;;;;5008797;28;20101;-80
2024/01/07 12:28:21;;;;;;;0.10;0.10;;;5.30;77.30;;;;;;5014387;28;20102;-86
2024/01/07 12:30:50;;;;;;;0.10;0.10;;;5.20;77.30;;;;;;5004995;28;20056;-86
2024/01/07 12:33:26;;;;;;;0.10;0.10;;;5.10;77.90;;;;;;5016005;28;20032;-86
2024/01/07 12:35:51;;;;;;;0.10;0.10;;;5.10;78.50;;;;;;5018337;28;20037;-86
2024/01/07 12:38:24;;;;;;;0.10;0.10;;;5.30;78.30;;;;;;5023241;28;20039;-86
2024/01/07 12:40:52;;;;;;;0.10;0.10;;;5.10;77.60;;;;;;5017710;28;20099;-89
2024/01/07 12:43:17;;;;;;;;;;;4.80;76.70;;;;;;5022807;28;20516;-85
2024/01/07 12:45:44;;;;;;;0.10;0.10;;;4.80;77.80;;;;;;5011831;28;19936;-88
2024/01/07 12:48:09;;;;;;;0.10;0.10;;;5.00;77.30;;;;;;5035422;28;20078;-86
2024/01/07 12:50:35;;;;;;;0.10;0.10;;;5.00;77.20;;;;;;5018311;28;20599;-87
2024/01/07 12:53:01;;;;;;;0.10;0.10;;;4.90;76.90;;;;;;5020876;28;20833;-87
2024/01/07 12:55:27;;;;;;;0.10;0.10;;;4.70;75.60;;;;;;5020583;28;20036;-85